5R8

De Quincy Industrial Airpark

De Quincy, Louisiana, USA
METAR K5R8 161915Z AUTO 00000KT 10SM OVC038 13/06 A3028 RMK AO2 T01270059
Observed Flight Rules
Jan-16 @ 19:15 UTC (10 minutes ago) Visual Flight Rules
Visibility Clouds
10 miles
  • Overcast at 3,800' AGL
Temperatures Readings
Current 13°C / 55°F
Dewpoint 6°C / 43°F
Humidity 63%
Altimeter 30.28" Hg
Pressure 1025.42 hPa
Elevation 24
METAR K5R8 161915Z AUTO 00000KT 10SM OVC038 13/06 A3028 RMK AO2 T01270059
Observed Flight Rules
Jan-16 @ 19:15 UTC
(10 minutes ago)
VFR
Clouds
  • Overcast at 3,800' AGL
Temperature Dewpoint
13°C / 55°F 6°C / 43°F
Humidity Altimeter Pressure
63% 30.28" Hg 1025.42 hPa